createdAt,value
2019-02-18T00:01:53.871Z,23.00
2019-02-18T00:04:24.436Z,23.50
2019-02-18T00:06:55.077Z,24.70
2019-02-18T00:09:25.539Z,23.33
2019-02-18T00:11:55.910Z,24.10
2019-02-18T00:14:26.371Z,23.63
2019-02-18T00:16:57.006Z,22.27
2019-02-18T00:19:27.478Z,22.83
2019-02-18T00:21:58.156Z,25.53
2019-02-18T00:24:28.703Z,23.33
2019-02-18T00:26:59.103Z,21.83
2019-02-18T00:29:29.932Z,23.43
2019-02-18T00:32:00.430Z,24.20
2019-02-18T00:34:31.049Z,23.47
2019-02-18T00:37:01.421Z,21.70
2019-02-18T00:39:31.827Z,22.93
2019-02-18T00:42:02.140Z,22.27
2019-02-18T00:44:32.531Z,24.47
2019-02-18T00:47:02.979Z,23.50
2019-02-18T00:49:33.550Z,21.20
2019-02-18T00:52:04.157Z,21.60
2019-02-18T00:54:34.776Z,23.50
2019-02-18T00:57:05.140Z,23.77
2019-02-18T00:59:35.731Z,23.30
2019-02-18T01:02:06.190Z,26.13
2019-02-18T01:04:36.863Z,28.93
2019-02-18T01:07:07.555Z,29.10
2019-02-18T01:09:38.103Z,27.07
2019-02-18T01:12:08.449Z,25.87
2019-02-18T01:14:38.716Z,23.23
2019-02-18T01:17:09.474Z,23.57
2019-02-18T01:19:39.972Z,23.33
2019-02-18T01:22:10.429Z,24.20
2019-02-18T01:24:40.879Z,24.97
2019-02-18T01:27:11.281Z,23.63
2019-02-18T01:29:41.905Z,24.27
2019-02-18T01:32:12.316Z,22.43
2019-02-18T01:34:43.006Z,21.73
2019-02-18T01:37:13.394Z,22.57
2019-02-18T01:39:43.845Z,22.13
2019-02-18T01:42:14.167Z,22.87
2019-02-18T01:44:44.803Z,25.40
2019-02-18T01:47:15.141Z,26.97
2019-02-18T01:49:45.592Z,23.83
2019-02-18T01:52:15.911Z,24.07
2019-02-18T01:54:46.586Z,26.07
2019-02-18T01:57:16.935Z,25.07
2019-02-18T01:59:47.374Z,23.97
2019-02-18T02:02:17.985Z,24.47
2019-02-18T02:04:48.729Z,24.43
2019-02-18T02:07:19.691Z,23.33
2019-02-18T02:09:50.230Z,24.23
2019-02-18T02:12:20.731Z,24.70
2019-02-18T02:14:51.100Z,24.17
2019-02-18T02:17:21.590Z,26.07
2019-02-18T02:19:52.320Z,24.43
2019-02-18T02:22:22.716Z,24.27
2019-02-18T02:24:53.224Z,23.60
2019-02-18T02:27:23.817Z,25.20
2019-02-18T02:29:54.374Z,25.77
2019-02-18T02:32:24.856Z,25.47
2019-02-18T02:34:55.295Z,24.43
2019-02-18T02:37:25.791Z,25.27
2019-02-18T02:39:56.371Z,24.73
2019-02-18T02:42:26.954Z,26.73
2019-02-18T02:44:57.643Z,24.10
2019-02-18T02:47:28.142Z,23.90
2019-02-18T02:49:58.897Z,25.27
2019-02-18T02:52:29.642Z,25.43
2019-02-18T02:55:00.296Z,24.93
2019-02-18T02:57:31.004Z,23.60
2019-02-18T03:00:01.502Z,23.60
2019-02-18T03:02:32.120Z,25.53
2019-02-18T03:05:02.443Z,25.23
2019-02-18T03:07:33.902Z,23.70
2019-02-18T03:10:04.492Z,24.20
2019-02-18T03:12:35.016Z,22.50
2019-02-18T03:15:06.250Z,22.90
2019-02-18T03:17:38.382Z,24.87
2019-02-18T03:20:08.978Z,23.77
2019-02-18T03:22:39.493Z,23.47
2019-02-18T03:25:29.203Z,22.30
2019-02-18T03:28:26.623Z,21.00
2019-02-18T03:31:18.424Z,20.33
2019-02-18T03:33:56.722Z,21.90
2019-02-18T03:36:27.477Z,22.17
2019-02-18T03:38:57.861Z,23.17
2019-02-18T03:41:28.365Z,23.33
2019-02-18T03:43:59.132Z,25.83
2019-02-18T03:46:30.802Z,23.30
2019-02-18T03:49:01.188Z,25.27
2019-02-18T03:51:31.896Z,23.33
2019-02-18T03:54:02.318Z,22.67
2019-02-18T03:56:32.884Z,23.73
2019-02-18T03:59:03.442Z,22.70
2019-02-18T04:01:33.933Z,21.77
2019-02-18T04:04:04.596Z,25.10
2019-02-18T04:06:35.122Z,23.30
2019-02-18T04:09:06.433Z,22.63
2019-02-18T04:11:38.533Z,22.17
2019-02-18T04:14:09.016Z,20.13
2019-02-18T04:16:40.260Z,21.07
2019-02-18T04:19:10.712Z,22.57
2019-02-18T04:21:41.423Z,21.60
2019-02-18T04:24:11.937Z,23.73
2019-02-18T04:26:42.687Z,22.00
2019-02-18T04:29:13.141Z,22.40
2019-02-18T04:31:43.472Z,21.47
2019-02-18T04:34:13.855Z,20.43
2019-02-18T04:36:44.384Z,20.87
2019-02-18T04:39:14.829Z,22.00
2019-02-18T04:41:45.397Z,21.70
2019-02-18T04:44:15.998Z,20.57
2019-02-18T04:46:46.437Z,22.17
2019-02-18T04:49:16.742Z,21.13
2019-02-18T04:51:47.257Z,20.13
2019-02-18T04:54:17.913Z,22.10
2019-02-18T04:56:48.353Z,22.23
2019-02-18T04:59:18.927Z,22.13
2019-02-18T05:01:49.503Z,22.43
2019-02-18T05:04:19.859Z,22.33
2019-02-18T05:06:50.294Z,22.10
2019-02-18T05:09:21.167Z,25.50
2019-02-18T05:11:51.956Z,24.97
2019-02-18T05:14:22.512Z,22.30
2019-02-18T05:16:52.978Z,23.13
2019-02-18T05:19:23.436Z,20.27
2019-02-18T05:21:54.128Z,22.83
2019-02-18T05:24:24.695Z,22.07
2019-02-18T05:26:55.447Z,20.23
2019-02-18T05:29:26.002Z,20.00
2019-02-18T05:31:56.601Z,20.83
2019-02-18T05:34:27.476Z,21.40
2019-02-18T05:36:58.288Z,22.47
2019-02-18T05:39:29.048Z,21.73
2019-02-18T05:41:59.942Z,23.10
2019-02-18T05:44:49.650Z,22.73
2019-02-18T05:47:20.797Z,23.33
2019-02-18T05:49:52.997Z,25.63
2019-02-18T05:52:23.844Z,21.77
2019-02-18T05:54:54.939Z,21.93
2019-02-18T05:57:26.749Z,22.17
2019-02-18T05:59:57.517Z,21.13
2019-02-18T06:02:28.504Z,20.27
2019-02-18T06:04:58.873Z,26.80
2019-02-18T06:07:29.572Z,26.20
2019-02-18T06:10:00.376Z,26.67
2019-02-18T06:12:31.100Z,27.53
2019-02-18T06:15:01.872Z,23.17
2019-02-18T06:17:32.642Z,20.73
2019-02-18T06:20:03.433Z,20.87
2019-02-18T06:22:34.461Z,23.83
2019-02-18T06:25:05.715Z,20.80
2019-02-18T06:27:36.469Z,22.20
2019-02-18T06:30:08.345Z,23.50
2019-02-18T06:32:39.153Z,22.20
2019-02-18T06:35:09.866Z,23.83
2019-02-18T06:37:40.558Z,23.93
2019-02-18T06:40:11.199Z,25.77
2019-02-18T06:42:42.333Z,22.93
2019-02-18T06:45:35.367Z,23.23
2019-02-18T06:48:31.407Z,23.33
2019-02-18T06:51:01.907Z,22.63
2019-02-18T06:53:32.815Z,25.10
2019-02-18T06:56:03.292Z,26.33
2019-02-18T06:59:01.968Z,25.40
2019-02-18T07:01:48.669Z,22.40
2019-02-18T07:04:53.708Z,22.80
2019-02-18T07:07:45.818Z,23.97
2019-02-18T07:10:41.733Z,24.57
2019-02-18T07:13:12.603Z,24.53
2019-02-18T07:15:43.318Z,26.17
2019-02-18T07:18:13.836Z,30.47
2019-02-18T07:20:44.427Z,27.97
2019-02-18T07:23:15.090Z,32.73
2019-02-18T07:25:45.759Z,31.10
2019-02-18T07:28:16.544Z,27.70
2019-02-18T07:30:47.234Z,25.80
2019-02-18T07:33:17.804Z,28.27
2019-02-18T07:35:48.363Z,27.90
2019-02-18T07:38:19.008Z,27.03
2019-02-18T07:40:49.674Z,27.40
2019-02-18T07:43:20.139Z,26.30
2019-02-18T07:45:50.814Z,25.90
2019-02-18T07:48:21.307Z,28.47
2019-02-18T07:50:51.822Z,31.03
2019-02-18T07:53:22.733Z,28.47
2019-02-18T07:55:53.278Z,28.47
2019-02-18T07:58:24.784Z,27.77
2019-02-18T08:00:55.380Z,28.13
2019-02-18T08:03:25.848Z,25.83
2019-02-18T08:05:56.289Z,25.37
2019-02-18T08:08:26.737Z,25.07
2019-02-18T08:10:57.399Z,24.83
2019-02-18T08:13:28.006Z,25.03
2019-02-18T08:15:58.580Z,24.80
2019-02-18T08:18:29.438Z,24.67
2019-02-18T08:20:59.946Z,24.87
2019-02-18T08:23:30.599Z,25.73
2019-02-18T08:26:01.144Z,25.20
2019-02-18T08:28:32.010Z,24.10
2019-02-18T08:31:02.468Z,25.43
2019-02-18T08:33:34.188Z,24.27
2019-02-18T08:36:04.624Z,22.73
2019-02-18T08:38:35.968Z,22.53
2019-02-18T08:41:06.394Z,22.13
2019-02-18T08:43:37.141Z,20.60
2019-02-18T08:46:07.530Z,19.17
2019-02-18T08:48:37.881Z,20.13
2019-02-18T08:51:08.495Z,18.57
2019-02-18T08:53:39.104Z,20.10
2019-02-18T08:56:09.735Z,19.40
2019-02-18T08:58:40.220Z,18.70
2019-02-18T09:01:11.243Z,18.37
2019-02-18T09:03:42.134Z,18.93
2019-02-18T09:06:12.799Z,19.00
2019-02-18T09:08:43.380Z,20.10
2019-02-18T09:11:13.925Z,18.93
2019-02-18T09:13:44.596Z,19.53
2019-02-18T09:16:15.095Z,17.80
2019-02-18T09:18:45.623Z,17.63
2019-02-18T09:21:16.316Z,18.23
2019-02-18T09:24:05.776Z,18.77
2019-02-18T09:26:36.356Z,21.03
2019-02-18T09:29:07.044Z,19.57
2019-02-18T09:31:37.535Z,21.63
2019-02-18T09:34:08.194Z,19.00
2019-02-18T09:36:38.693Z,19.27
2019-02-18T09:39:30.055Z,21.17
2019-02-18T09:41:51.851Z,20.67
2019-02-18T09:44:22.427Z,21.10
2019-02-18T09:46:52.944Z,20.33
2019-02-18T09:49:23.943Z,21.70
2019-02-18T09:51:54.489Z,19.40
2019-02-18T09:54:25.204Z,19.13
2019-02-18T09:56:55.599Z,18.47
2019-02-18T09:59:26.023Z,19.57
2019-02-18T10:01:56.571Z,19.17
2019-02-18T10:04:27.368Z,18.23
2019-02-18T10:06:57.959Z,17.77
2019-02-18T10:09:29.515Z,17.90
2019-02-18T10:12:00.023Z,16.87
2019-02-18T10:14:30.719Z,18.77
2019-02-18T10:17:04.081Z,16.03
2019-02-18T10:19:34.954Z,18.07
2019-02-18T10:22:17.380Z,16.30
2019-02-18T10:24:50.637Z,16.10
2019-02-18T10:27:19.414Z,16.33
2019-02-18T10:29:50.110Z,15.13
2019-02-18T10:32:20.941Z,17.57
2019-02-18T10:34:51.574Z,16.83
2019-02-18T10:37:25.118Z,16.07
2019-02-18T10:39:56.145Z,16.20
2019-02-18T10:42:29.095Z,15.40
2019-02-18T10:45:06.974Z,16.17
2019-02-18T10:47:40.600Z,15.47
2019-02-18T10:50:11.700Z,15.30
2019-02-18T10:52:42.478Z,17.83
2019-02-18T10:55:13.856Z,17.37
2019-02-18T10:57:45.165Z,16.27
2019-02-18T11:00:16.488Z,17.17
2019-02-18T11:02:47.573Z,17.53
2019-02-18T11:05:18.886Z,16.43
2019-02-18T11:07:49.602Z,16.17
2019-02-18T11:10:20.371Z,15.77
2019-02-18T11:12:51.630Z,16.33
2019-02-18T11:15:22.739Z,17.27
2019-02-18T11:17:54.244Z,15.57
2019-02-18T11:20:26.144Z,15.33
2019-02-18T11:22:57.936Z,15.53
2019-02-18T11:25:29.771Z,15.97
2019-02-18T11:28:01.035Z,15.47
2019-02-18T11:30:32.538Z,17.33
2019-02-18T11:33:03.709Z,14.73
2019-02-18T11:35:35.122Z,16.50
2019-02-18T11:38:06.042Z,15.73
2019-02-18T11:40:36.991Z,15.53
2019-02-18T11:43:10.780Z,12.27
2019-02-18T11:45:42.701Z,11.87
2019-02-18T11:48:13.749Z,11.30
2019-02-18T11:50:46.663Z,11.00
2019-02-18T11:53:18.420Z,11.63
2019-02-18T11:55:50.891Z,10.80
2019-02-18T11:58:23.484Z,11.37
2019-02-18T12:01:14.228Z,11.23
2019-02-18T12:03:45.752Z,11.33
2019-02-18T12:06:16.971Z,11.77
2019-02-18T12:08:49.236Z,12.07
2019-02-18T12:11:20.799Z,11.77
2019-02-18T12:13:52.676Z,11.23
2019-02-18T12:16:23.457Z,12.10
2019-02-18T12:18:54.737Z,11.90
2019-02-18T12:21:26.166Z,13.50
2019-02-18T12:23:57.480Z,12.47
2019-02-18T12:26:28.531Z,12.87
2019-02-18T12:31:58.504Z,12.53
2019-02-18T12:34:29.130Z,12.50
2019-02-18T12:37:11.441Z,13.30
2019-02-18T12:39:41.993Z,13.20
2019-02-18T12:42:12.496Z,12.30
2019-02-18T12:44:43.101Z,13.13
2019-02-18T12:47:14.250Z,13.97
2019-02-18T12:49:45.102Z,13.00
2019-02-18T12:52:17.156Z,14.83
2019-02-18T12:54:47.902Z,12.80
2019-02-18T12:57:18.434Z,13.47
2019-02-18T12:59:49.108Z,14.43
2019-02-18T13:02:21.876Z,13.87
2019-02-18T13:04:52.647Z,13.50
2019-02-18T13:07:23.487Z,13.80
2019-02-18T13:09:54.346Z,13.97
2019-02-18T13:12:25.151Z,12.90
2019-02-18T13:14:56.434Z,14.23
2019-02-18T13:17:27.341Z,11.83
2019-02-18T13:19:57.997Z,11.47
2019-02-18T13:22:28.427Z,12.27
2019-02-18T13:24:59.041Z,13.03
2019-02-18T13:27:29.591Z,11.47
2019-02-18T13:30:00.235Z,11.97
2019-02-18T13:32:30.909Z,11.70
2019-02-18T13:35:01.790Z,11.97
2019-02-18T13:37:32.452Z,13.00
2019-02-18T13:40:04.535Z,11.13
2019-02-18T13:42:35.670Z,11.87
2019-02-18T13:45:06.854Z,11.80
2019-02-18T13:47:37.515Z,11.80
2019-02-18T13:50:09.412Z,11.40
2019-02-18T13:52:40.079Z,11.37
2019-02-18T13:55:11.808Z,12.13
2019-02-18T13:57:43.183Z,12.63
2019-02-18T14:00:20.117Z,11.90
2019-02-18T14:02:51.140Z,13.07
2019-02-18T14:05:22.321Z,11.97
2019-02-18T14:07:52.894Z,11.13
2019-02-18T14:10:24.265Z,12.03
2019-02-18T14:12:55.160Z,12.20
2019-02-18T14:15:25.897Z,11.77
2019-02-18T14:17:57.030Z,11.27
2019-02-18T14:20:28.020Z,11.37
2019-02-18T14:22:59.176Z,11.30
2019-02-18T14:25:29.746Z,11.40
2019-02-18T14:28:00.623Z,10.83
2019-02-18T14:30:31.575Z,10.77
2019-02-18T14:33:02.280Z,11.83
2019-02-18T14:35:33.437Z,12.60
2019-02-18T14:38:05.784Z,13.90
2019-02-18T14:40:36.993Z,12.63
2019-02-18T14:43:08.214Z,12.10
2019-02-18T14:45:39.029Z,13.60
2019-02-18T14:48:10.481Z,12.83
2019-02-18T14:50:42.025Z,13.17
2019-02-18T14:53:13.411Z,12.23
2019-02-18T14:55:44.301Z,12.90
2019-02-18T14:58:17.566Z,13.40
2019-02-18T15:00:48.541Z,13.93
2019-02-18T15:03:19.353Z,13.57
2019-02-18T15:05:50.082Z,12.43
2019-02-18T15:08:20.741Z,13.70
2019-02-18T15:10:51.321Z,13.13
2019-02-18T15:13:22.149Z,13.00
2019-02-18T15:15:53.080Z,12.97
2019-02-18T15:18:23.761Z,13.83
2019-02-18T15:20:54.642Z,12.40
2019-02-18T15:23:25.222Z,13.50
2019-02-18T15:25:56.559Z,12.73
2019-02-18T15:28:27.433Z,13.37
2019-02-18T15:30:58.050Z,13.50
2019-02-18T15:33:28.779Z,12.03
2019-02-18T15:35:59.408Z,14.53
2019-02-18T15:38:30.350Z,12.80
2019-02-18T15:41:32.139Z,13.30
2019-02-18T15:44:07.052Z,12.53
2019-02-18T15:46:38.840Z,12.97
2019-02-18T15:49:10.460Z,13.13
2019-02-18T15:51:41.486Z,11.87
2019-02-18T15:54:12.545Z,12.80
2019-02-18T15:56:43.393Z,13.80
2019-02-18T15:59:14.619Z,13.33
2019-02-18T16:01:45.427Z,13.53
2019-02-18T16:04:17.322Z,13.13
2019-02-18T16:06:48.052Z,13.27
2019-02-18T16:09:18.816Z,14.20
2019-02-18T16:11:49.515Z,14.60
2019-02-18T16:14:20.460Z,14.60
2019-02-18T16:16:51.737Z,14.27
2019-02-18T16:19:22.421Z,14.10
2019-02-18T16:21:53.199Z,14.33
2019-02-18T16:24:24.327Z,14.93
2019-02-18T16:26:55.132Z,14.00
2019-02-18T16:29:25.637Z,15.40
2019-02-18T16:31:56.662Z,15.40
2019-02-18T16:34:27.606Z,15.30
2019-02-18T16:36:58.707Z,15.63
2019-02-18T16:39:32.242Z,17.57
2019-02-18T16:42:03.488Z,17.13
2019-02-18T16:44:37.504Z,17.10
2019-02-18T16:47:08.452Z,16.43
2019-02-18T16:49:39.410Z,15.90
2019-02-18T16:52:10.460Z,16.17
2019-02-18T16:54:41.086Z,15.40
2019-02-18T16:57:20.250Z,16.23
2019-02-18T16:59:50.933Z,16.10
2019-02-18T17:02:22.065Z,16.20
2019-02-18T17:04:53.181Z,15.47
2019-02-18T17:07:24.202Z,15.63
2019-02-18T17:09:55.337Z,15.50
2019-02-18T17:12:26.142Z,16.10
2019-02-18T17:14:57.071Z,16.93
2019-02-18T17:17:28.549Z,16.67
2019-02-18T17:20:00.668Z,14.83
2019-02-18T17:22:34.318Z,16.87
2019-02-18T17:25:09.192Z,17.77
2019-02-18T17:27:46.422Z,17.00
2019-02-18T17:30:17.129Z,17.23
2019-02-18T17:32:47.922Z,16.80
2019-02-18T17:35:18.581Z,15.93
2019-02-18T17:37:49.665Z,16.00
2019-02-18T17:40:20.497Z,16.50
2019-02-18T17:42:51.274Z,15.77
2019-02-18T17:45:21.731Z,15.93
2019-02-18T17:47:52.326Z,16.30
2019-02-18T17:50:23.119Z,17.27
2019-02-18T17:52:53.721Z,17.83
2019-02-18T17:55:24.977Z,16.40
2019-02-18T17:57:55.615Z,17.40
2019-02-18T18:00:48.614Z,17.50
2019-02-18T18:03:19.284Z,16.03
2019-02-18T18:05:49.885Z,17.43
2019-02-18T18:08:20.912Z,16.50
2019-02-18T18:10:54.647Z,17.90
2019-02-18T18:13:25.536Z,17.90
2019-02-18T18:15:56.120Z,15.70
2019-02-18T18:18:26.671Z,16.73
2019-02-18T18:20:57.172Z,16.13
2019-02-18T18:23:27.907Z,16.37
2019-02-18T18:25:58.419Z,19.50
2019-02-18T18:28:29.034Z,16.90
2019-02-18T18:31:00.117Z,16.97
2019-02-18T18:33:30.758Z,16.53
2019-02-18T18:36:01.325Z,18.00
2019-02-18T18:38:31.976Z,17.40
2019-02-18T18:41:02.821Z,16.73
2019-02-18T18:43:34.178Z,20.00
2019-02-18T18:46:05.081Z,17.40
2019-02-18T18:48:38.179Z,16.23
2019-02-18T18:51:08.822Z,16.23
2019-02-18T18:53:39.398Z,15.47
2019-02-18T18:56:10.804Z,14.23
2019-02-18T18:58:41.630Z,15.17
2019-02-18T19:01:14.051Z,13.93
2019-02-18T19:03:47.254Z,13.90
2019-02-18T19:06:18.309Z,13.87
2019-02-18T19:08:49.673Z,13.63
2019-02-18T19:11:21.282Z,14.37
2019-02-18T19:13:52.302Z,13.13
2019-02-18T19:16:23.183Z,12.70
2019-02-18T19:18:54.441Z,12.53
2019-02-18T19:21:25.308Z,12.27
2019-02-18T19:23:56.077Z,12.00
2019-02-18T19:26:26.768Z,12.17
2019-02-18T19:28:57.362Z,12.73
2019-02-18T19:31:28.332Z,12.40
2019-02-18T19:34:00.767Z,13.03
2019-02-18T19:36:32.333Z,17.67
2019-02-18T19:39:08.406Z,15.23
2019-02-18T19:41:39.158Z,12.13
2019-02-18T19:44:10.039Z,11.27
2019-02-18T19:46:40.698Z,11.77
2019-02-18T19:49:11.129Z,11.90
2019-02-18T19:51:41.638Z,11.43
2019-02-18T19:54:12.163Z,11.33
2019-02-18T19:56:42.926Z,11.83
2019-02-18T19:59:13.543Z,12.90
2019-02-18T20:01:44.258Z,11.37
2019-02-18T20:04:14.683Z,11.03
2019-02-18T20:06:45.446Z,11.40
2019-02-18T20:09:16.347Z,11.17
2019-02-18T20:11:47.348Z,12.23
2019-02-18T20:14:18.083Z,12.23
2019-02-18T20:17:11.642Z,11.20
2019-02-18T20:19:38.939Z,11.53
2019-02-18T20:22:09.763Z,11.83
2019-02-18T20:24:40.218Z,11.57
2019-02-18T20:27:10.959Z,11.63
2019-02-18T20:29:41.945Z,12.40
2019-02-18T20:32:14.765Z,11.83
2019-02-18T20:34:49.367Z,11.57
2019-02-18T20:37:19.931Z,11.53
2019-02-18T20:39:50.509Z,10.67
2019-02-18T20:42:21.787Z,12.00
2019-02-18T20:44:53.944Z,12.90
2019-02-18T20:47:27.322Z,11.47
2019-02-18T20:49:58.663Z,11.97
2019-02-18T20:52:33.833Z,11.33
2019-02-18T20:55:12.752Z,11.23
2019-02-18T20:57:51.428Z,11.77
2019-02-18T21:00:22.523Z,11.73
2019-02-18T21:02:57.988Z,11.47
2019-02-18T21:05:30.678Z,10.97
2019-02-18T21:08:06.145Z,11.03
2019-02-18T21:10:36.857Z,10.07
2019-02-18T21:13:10.765Z,9.40
2019-02-18T21:15:41.204Z,9.97
2019-02-18T21:18:11.665Z,10.00
2019-02-18T21:20:42.088Z,9.87
2019-02-18T21:23:12.775Z,10.57
2019-02-18T21:25:43.787Z,10.53
2019-02-18T21:28:14.642Z,10.23
2019-02-18T21:30:45.064Z,9.93
2019-02-18T21:33:15.679Z,10.07
2019-02-18T21:35:46.056Z,9.33
2019-02-18T21:38:17.003Z,10.47
2019-02-18T21:40:47.506Z,11.37
2019-02-18T21:43:17.841Z,8.83
2019-02-18T21:45:49.123Z,8.23
2019-02-18T21:48:19.753Z,9.50
2019-02-18T21:50:50.226Z,7.80
2019-02-18T21:53:20.620Z,8.47
2019-02-18T21:55:51.092Z,6.97
2019-02-18T21:58:22.168Z,7.80
2019-02-18T22:00:52.576Z,8.27
2019-02-18T22:03:23.461Z,9.03
2019-02-18T22:05:54.179Z,9.10
2019-02-18T22:08:24.714Z,8.07
2019-02-18T22:10:56.131Z,8.33
2019-02-18T22:13:26.559Z,8.57
2019-02-18T22:15:57.110Z,8.93
2019-02-18T22:18:27.579Z,7.83
2019-02-18T22:20:58.270Z,9.63
2019-02-18T22:23:29.207Z,8.43
2019-02-18T22:25:59.654Z,9.00
2019-02-18T22:28:30.370Z,8.73
2019-02-18T22:31:03.888Z,9.73
2019-02-18T22:33:34.353Z,8.90
2019-02-18T22:36:04.884Z,7.90
2019-02-18T22:38:35.553Z,7.53
2019-02-18T22:41:07.664Z,8.30
2019-02-18T22:43:39.278Z,8.33
2019-02-18T22:46:09.757Z,8.17
2019-02-18T22:48:40.215Z,7.70
2019-02-18T22:51:10.712Z,7.87
2019-02-18T22:53:41.313Z,8.57
2019-02-18T22:56:11.868Z,8.27
2019-02-18T22:58:42.279Z,8.27
2019-02-18T23:01:13.026Z,8.97
2019-02-18T23:03:43.638Z,8.73
2019-02-18T23:06:14.157Z,8.77
2019-02-18T23:08:44.999Z,8.33
2019-02-18T23:11:15.439Z,8.10
2019-02-18T23:13:58.266Z,10.10
2019-02-18T23:16:30.366Z,9.43
2019-02-18T23:19:32.895Z,8.53
2019-02-18T23:25:50.223Z,8.80
2019-02-18T23:28:24.960Z,8.57
2019-02-18T23:31:03.444Z,8.10
2019-02-18T23:33:37.885Z,8.83
2019-02-18T23:36:33.559Z,10.50
2019-02-18T23:39:24.957Z,8.70
2019-02-18T23:42:50.624Z,8.80
2019-02-18T23:45:32.174Z,7.77
2019-02-18T23:48:21.739Z,7.60
2019-02-18T23:51:04.198Z,9.20
2019-02-18T23:54:01.268Z,9.40
2019-02-18T23:56:34.448Z,8.50
